Amherst, New Hampshire
Current Conditions -  °F | °C
As of 2:51 PM on Friday 19 Dec 2014 (Local Time) from KASH Reporting Station
Overcast Overcast  
Wind Chill: -5°   Ceiling: 3300
Heat Index:   Visibility: 10mi
Dew Point: -7°   Wind: 13mph
Humidity: 59%   Direction: 360°N
Pressure: 29.99"   Gusts: NA
Location:  42.86°N, 71.63°W
Report Text: KASH 191951Z 36011KT 10SM OVC033 01/M07 A2999 RMK AO2 T00051066 SLP412
Loading
Personal Weather Stations






























Interactive Weather Map New forecast layout! Learn more

10-Day Weather Forecast

Advertisements
Track Severe Weather on mobile